createdAt,value
2018-11-11T00:00:10.402Z,5.80
2018-11-11T00:02:39.109Z,6.23
2018-11-11T00:05:09.302Z,5.40
2018-11-11T00:07:38.021Z,5.80
2018-11-11T00:10:21.644Z,5.05
2018-11-11T00:12:50.608Z,7.53
2018-11-11T00:15:19.904Z,6.12
2018-11-11T00:17:48.960Z,6.20
2018-11-11T00:20:17.761Z,6.33
2018-11-11T00:22:46.485Z,5.30
2018-11-11T00:25:15.185Z,6.35
2018-11-11T00:27:43.871Z,5.83
2018-11-11T00:30:18.059Z,6.47
2018-11-11T00:32:46.768Z,5.40
2018-11-11T00:35:15.514Z,6.57
2018-11-11T00:37:44.212Z,6.00
2018-11-11T00:40:14.132Z,5.78
2018-11-11T00:42:43.744Z,5.43
2018-11-11T00:45:13.273Z,5.40
2018-11-11T00:47:42.856Z,5.47
2018-11-11T00:50:12.237Z,5.42
2018-11-11T00:52:40.967Z,5.95
2018-11-11T00:55:13.045Z,5.43
2018-11-11T00:57:42.322Z,5.90
2018-11-11T01:00:12.960Z,6.17
2018-11-11T01:02:42.464Z,6.07
2018-11-11T01:05:11.993Z,5.60
2018-11-11T01:07:41.356Z,5.77
2018-11-11T01:10:12.747Z,6.27
2018-11-11T01:12:42.772Z,6.60
2018-11-11T01:15:12.884Z,5.85
2018-11-11T01:17:41.606Z,6.00
2018-11-11T01:20:13.225Z,6.37
2018-11-11T01:22:42.112Z,6.50
2018-11-11T01:25:12.744Z,5.80
2018-11-11T01:27:42.578Z,6.23
2018-11-11T01:30:11.289Z,6.73
2018-11-11T01:32:40.062Z,6.77
2018-11-11T01:35:11.272Z,6.13
2018-11-11T01:37:40.520Z,5.57
2018-11-11T01:40:09.728Z,5.80
2018-11-11T01:42:38.556Z,5.90
2018-11-11T01:45:10.801Z,5.93
2018-11-11T01:47:39.770Z,5.70
2018-11-11T01:50:09.360Z,5.57
2018-11-11T01:52:38.695Z,5.43
2018-11-11T01:55:07.603Z,6.20
2018-11-11T01:57:36.327Z,4.50
2018-11-11T02:00:06.565Z,4.30
2018-11-11T02:02:35.251Z,4.03
2018-11-11T02:05:05.256Z,4.10
2018-11-11T02:07:33.969Z,4.40
2018-11-11T02:10:04.041Z,4.00
2018-11-11T02:12:52.007Z,4.97
2018-11-11T02:15:21.372Z,3.43
2018-11-11T02:17:50.889Z,3.67
2018-11-11T02:20:20.599Z,4.03
2018-11-11T02:22:50.459Z,4.33
2018-11-11T02:25:19.134Z,3.27
2018-11-11T02:27:47.916Z,3.80
2018-11-11T02:30:18.939Z,3.25
2018-11-11T02:32:48.682Z,3.20
2018-11-11T02:35:17.393Z,3.40
2018-11-11T02:37:46.249Z,4.23
2018-11-11T02:40:18.983Z,5.10
2018-11-11T02:42:48.101Z,3.50
2018-11-11T02:45:17.771Z,4.97
2018-11-11T02:47:46.500Z,3.50
2018-11-11T02:50:17.296Z,3.87
2018-11-11T02:52:47.180Z,6.03
2018-11-11T02:55:16.501Z,2.80
2018-11-11T02:57:45.808Z,3.47
2018-11-11T03:00:17.392Z,2.80
2018-11-11T03:02:46.662Z,3.53
2018-11-11T03:05:17.087Z,2.95
2018-11-11T03:07:45.789Z,3.43
2018-11-11T03:10:16.313Z,3.47
2018-11-11T03:12:45.695Z,4.60
2018-11-11T03:15:14.996Z,3.43
2018-11-11T03:17:44.255Z,3.47
2018-11-11T03:20:13.602Z,3.13
2018-11-11T03:22:42.350Z,3.00
2018-11-11T03:25:17.992Z,4.30
2018-11-11T03:27:47.554Z,4.63
2018-11-11T03:30:17.277Z,3.67
2018-11-11T03:32:46.546Z,4.77
2018-11-11T03:35:15.531Z,4.00
2018-11-11T03:37:45.015Z,3.37
2018-11-11T03:40:15.474Z,3.03
2018-11-11T03:42:44.459Z,3.37
2018-11-11T03:45:14.911Z,3.00
2018-11-11T03:47:44.600Z,4.00
2018-11-11T03:50:13.317Z,3.30
2018-11-11T03:52:42.243Z,3.37
2018-11-11T03:55:11.269Z,3.60
2018-11-11T03:57:41.211Z,4.87
2018-11-11T04:00:11.414Z,3.83
2018-11-11T04:02:41.013Z,3.53
2018-11-11T04:05:11.037Z,3.80
2018-11-11T04:07:40.836Z,4.10
2018-11-11T04:10:12.450Z,4.00
2018-11-11T04:12:41.392Z,3.30
2018-11-11T04:15:11.931Z,3.70
2018-11-11T04:17:40.720Z,3.70
2018-11-11T04:20:11.349Z,3.17
2018-11-11T04:22:40.045Z,3.40
2018-11-11T04:25:08.835Z,4.77
2018-11-11T04:27:37.564Z,3.90
2018-11-11T04:30:06.960Z,3.70
2018-11-11T04:32:35.681Z,5.00
2018-11-11T04:35:06.447Z,4.35
2018-11-11T04:37:35.149Z,4.47
2018-11-11T04:40:06.651Z,4.85
2018-11-11T04:42:35.356Z,4.30
2018-11-11T04:45:04.064Z,3.43
2018-11-11T04:47:32.802Z,4.57
2018-11-11T04:50:01.916Z,4.47
2018-11-11T04:52:30.625Z,5.37
2018-11-11T04:54:59.339Z,3.27
2018-11-11T04:57:28.054Z,6.10
2018-11-11T04:59:56.749Z,7.13
2018-11-11T05:02:25.456Z,3.87
2018-11-11T05:04:54.899Z,6.03
2018-11-11T05:07:24.537Z,3.93
2018-11-11T05:09:53.251Z,5.77
2018-11-11T05:12:22.709Z,4.00
2018-11-11T05:14:51.419Z,3.80
2018-11-11T05:17:20.732Z,3.83
2018-11-11T05:19:49.449Z,6.12
2018-11-11T05:22:18.156Z,4.77
2018-11-11T05:24:46.903Z,3.67
2018-11-11T05:27:15.608Z,5.20
2018-11-11T05:29:44.309Z,4.10
2018-11-11T05:32:13.024Z,4.13
2018-11-11T05:34:41.740Z,5.42
2018-11-11T05:37:10.441Z,3.73
2018-11-11T05:39:39.148Z,6.83
2018-11-11T05:42:07.884Z,3.67
2018-11-11T05:44:36.596Z,5.37
2018-11-11T05:47:05.613Z,5.00
2018-11-11T05:49:35.084Z,5.00
2018-11-11T05:52:04.938Z,3.10
2018-11-11T05:54:34.743Z,3.83
2018-11-11T05:57:03.478Z,4.67
2018-11-11T05:59:32.273Z,7.17
2018-11-11T06:02:01.008Z,3.53
2018-11-11T06:04:29.788Z,6.57
2018-11-11T06:06:58.494Z,7.80
2018-11-11T06:09:27.226Z,4.50
2018-11-11T06:11:55.961Z,4.00
2018-11-11T06:14:24.673Z,6.47
2018-11-11T06:16:53.364Z,8.60
2018-11-11T06:19:22.086Z,5.80
2018-11-11T06:21:50.827Z,4.83
2018-11-11T06:24:19.539Z,7.10
2018-11-11T06:26:48.662Z,5.63
2018-11-11T06:29:18.523Z,4.67
2018-11-11T06:31:47.372Z,4.90
2018-11-11T06:34:16.612Z,6.43
2018-11-11T06:36:46.244Z,7.17
2018-11-11T06:39:14.999Z,4.33
2018-11-11T06:41:44.344Z,5.50
2018-11-11T06:44:13.048Z,5.42
2018-11-11T06:46:41.763Z,5.13
2018-11-11T06:49:10.480Z,6.15
2018-11-11T06:51:39.187Z,4.83
2018-11-11T06:54:07.919Z,6.63
2018-11-11T06:56:36.656Z,6.27
2018-11-11T06:59:06.077Z,5.60
2018-11-11T07:01:34.799Z,6.15
2018-11-11T07:04:06.518Z,3.45
2018-11-11T07:06:35.212Z,6.37
2018-11-11T07:09:05.840Z,6.07
2018-11-11T07:11:34.544Z,5.65
2018-11-11T07:14:03.313Z,4.90
2018-11-11T07:16:31.984Z,3.17
2018-11-11T07:19:01.529Z,6.97
2018-11-11T07:21:30.236Z,8.33
2018-11-11T07:23:58.951Z,3.50
2018-11-11T07:26:27.964Z,3.80
2018-11-11T07:28:56.691Z,6.03
2018-11-11T07:31:26.535Z,8.20
2018-11-11T07:33:55.266Z,6.50
2018-11-11T07:36:25.592Z,4.87
2018-11-11T07:38:54.312Z,4.57
2018-11-11T07:41:23.036Z,6.50
2018-11-11T07:43:51.772Z,4.37
2018-11-11T07:46:20.468Z,4.53
2018-11-11T07:48:49.179Z,4.97
2018-11-11T07:51:18.180Z,5.30
2018-11-11T07:53:46.865Z,6.53
2018-11-11T07:56:15.594Z,2.83
2018-11-11T07:58:44.324Z,4.07
2018-11-11T08:01:13.370Z,6.10
2018-11-11T08:03:42.072Z,5.23
2018-11-11T08:06:11.547Z,7.30
2018-11-11T08:08:40.400Z,8.00
2018-11-11T08:11:20.719Z,4.43
2018-11-11T08:13:50.475Z,6.70
2018-11-11T08:16:19.193Z,5.97
2018-11-11T08:18:47.911Z,4.67
2018-11-11T08:21:16.696Z,7.08
2018-11-11T08:23:45.387Z,4.50
2018-11-11T08:26:14.112Z,6.07
2018-11-11T08:28:42.805Z,5.87
2018-11-11T08:31:12.369Z,3.17
2018-11-11T08:33:41.076Z,5.10
2018-11-11T08:36:09.798Z,5.42
2018-11-11T08:38:39.214Z,4.83
2018-11-11T08:41:08.189Z,7.93
2018-11-11T08:43:36.905Z,6.27
2018-11-11T08:46:06.459Z,6.80
2018-11-11T08:48:35.233Z,3.60
2018-11-11T08:51:06.082Z,5.66
2018-11-11T08:53:34.807Z,5.57
2018-11-11T08:56:23.973Z,4.05
2018-11-11T08:58:52.672Z,3.47
2018-11-11T09:01:21.828Z,5.53
2018-11-11T09:03:50.879Z,5.23
2018-11-11T09:06:19.711Z,6.50
2018-11-11T09:08:49.281Z,7.23
2018-11-11T09:11:18.076Z,4.28
2018-11-11T09:13:47.416Z,3.90
2018-11-11T09:16:16.392Z,3.85
2018-11-11T09:18:45.963Z,4.93
2018-11-11T09:21:14.728Z,3.47
2018-11-11T09:23:43.492Z,5.13
2018-11-11T09:26:12.191Z,7.30
2018-11-11T09:28:40.948Z,4.97
2018-11-11T09:31:09.736Z,3.47
2018-11-11T09:33:38.646Z,4.83
2018-11-11T09:36:08.120Z,9.93
2018-11-11T09:38:36.805Z,8.40
2018-11-11T09:41:06.373Z,6.00
2018-11-11T09:43:35.080Z,4.30
2018-11-11T09:46:05.573Z,5.70
2018-11-11T09:48:34.312Z,4.67
2018-11-11T09:51:03.053Z,2.73
2018-11-11T09:56:12.013Z,3.42
2018-11-11T09:58:40.817Z,2.30
2018-11-11T10:01:09.744Z,2.03
2018-11-11T10:03:42.354Z,3.70
2018-11-11T10:06:19.304Z,3.54
2018-11-11T10:08:53.378Z,5.37
2018-11-11T10:11:27.841Z,3.10
2018-11-11T10:16:02.872Z,2.57
2018-11-11T10:18:36.868Z,1.93
2018-11-11T10:21:10.978Z,3.93
2018-11-11T10:23:43.588Z,2.67
2018-11-11T10:28:24.468Z,2.30
2018-11-11T10:30:58.979Z,2.70
2018-11-11T10:33:39.181Z,1.97
2018-11-11T10:36:13.671Z,3.20
2018-11-11T10:38:53.248Z,3.53
2018-11-11T10:41:26.049Z,2.13
2018-11-11T10:43:58.057Z,3.33
2018-11-11T10:46:31.760Z,3.37
2018-11-11T10:49:04.864Z,3.67
2018-11-11T10:51:33.579Z,3.37
2018-11-11T10:54:02.425Z,2.77
2018-11-11T11:05:10.279Z,2.87
2018-11-11T11:07:38.995Z,3.70
2018-11-11T11:10:08.611Z,1.87
2018-11-11T11:12:37.372Z,2.80
2018-11-11T11:15:07.614Z,1.50
2018-11-11T11:17:36.355Z,1.70
2018-11-11T11:20:05.365Z,1.67
2018-11-11T11:22:34.102Z,2.07
2018-11-11T11:25:02.832Z,3.87
2018-11-11T11:27:31.592Z,2.07
2018-11-11T11:30:00.678Z,1.67
2018-11-11T11:32:29.436Z,3.53
2018-11-11T11:34:58.632Z,3.33
2018-11-11T11:37:27.940Z,1.40
2018-11-11T11:39:56.655Z,3.30
2018-11-11T11:42:25.364Z,2.00
2018-11-11T11:44:54.092Z,3.77
2018-11-11T11:47:23.509Z,2.37
2018-11-11T11:49:52.256Z,3.03
2018-11-11T11:52:22.209Z,4.10
2018-11-11T11:54:50.888Z,2.52
2018-11-11T11:57:19.624Z,2.80
2018-11-11T11:59:48.363Z,3.83
2018-11-11T12:02:17.308Z,3.83
2018-11-11T12:04:45.988Z,3.73
2018-11-11T12:07:14.687Z,1.57
2018-11-11T12:09:43.430Z,6.43
2018-11-11T12:12:12.153Z,2.07
2018-11-11T12:14:40.896Z,4.83
2018-11-11T12:17:09.703Z,2.10
2018-11-11T12:19:38.365Z,2.60
2018-11-11T12:22:07.640Z,3.23
2018-11-11T12:24:36.609Z,1.70
2018-11-11T12:27:05.594Z,3.33
2018-11-11T12:29:46.858Z,2.43
2018-11-11T12:32:15.564Z,3.67
2018-11-11T12:34:44.420Z,4.57
2018-11-11T12:37:13.142Z,5.28
2018-11-11T12:39:41.900Z,3.10
2018-11-11T12:42:10.568Z,3.15
2018-11-11T12:44:39.683Z,4.67
2018-11-11T12:47:08.431Z,2.80
2018-11-11T12:49:37.132Z,3.80
2018-11-11T12:52:05.880Z,3.40
2018-11-11T12:54:34.604Z,5.33
2018-11-11T12:57:03.340Z,2.47
2018-11-11T12:59:32.062Z,4.00
2018-11-11T13:02:00.817Z,2.87
2018-11-11T13:04:29.588Z,4.30
2018-11-11T13:06:58.502Z,4.60
2018-11-11T13:09:27.649Z,3.40
2018-11-11T13:11:56.415Z,2.23
2018-11-11T13:14:25.283Z,4.10
2018-11-11T13:16:54.384Z,5.73
2018-11-11T13:19:23.725Z,4.17
2018-11-11T13:21:52.412Z,4.03
2018-11-11T13:24:21.133Z,3.87
2018-11-11T13:26:50.459Z,5.50
2018-11-11T13:29:19.184Z,3.83
2018-11-11T13:31:48.623Z,2.50
2018-11-11T13:34:17.340Z,3.97
2018-11-11T13:36:47.075Z,4.10
2018-11-11T13:39:15.796Z,4.80
2018-11-11T13:41:44.522Z,5.20
2018-11-11T13:44:13.276Z,2.30
2018-11-11T13:46:42.162Z,3.30
2018-11-11T13:49:10.999Z,5.87
2018-11-11T13:51:39.734Z,4.23
2018-11-11T13:54:08.508Z,6.77
2018-11-11T13:56:38.640Z,4.83
2018-11-11T13:59:08.766Z,4.03
2018-11-11T14:01:37.544Z,4.27
2018-11-11T14:04:06.709Z,5.67
2018-11-11T14:06:35.588Z,6.13
2018-11-11T14:09:09.252Z,3.57
2018-11-11T14:11:38.276Z,4.77
2018-11-11T14:14:07.230Z,4.60
2018-11-11T14:16:35.988Z,4.07
2018-11-11T14:19:05.373Z,5.53
2018-11-11T14:21:34.002Z,4.73
2018-11-11T14:24:03.044Z,6.97
2018-11-11T14:26:32.412Z,3.90
2018-11-11T14:29:01.265Z,5.03
2018-11-11T14:31:29.936Z,5.33
2018-11-11T14:33:58.657Z,9.33
2018-11-11T14:36:27.364Z,4.40
2018-11-11T14:38:56.776Z,3.03
2018-11-11T14:41:25.484Z,3.93
2018-11-11T14:43:54.201Z,3.33
2018-11-11T14:46:22.937Z,2.93
2018-11-11T14:48:52.257Z,4.73
2018-11-11T14:51:20.972Z,2.97
2018-11-11T14:53:50.185Z,3.83
2018-11-11T14:56:18.904Z,5.03
2018-11-11T14:58:48.410Z,4.43
2018-11-11T15:01:17.030Z,4.12
2018-11-11T15:03:45.865Z,5.63
2018-11-11T15:06:14.785Z,4.80
2018-11-11T15:08:43.536Z,5.20
2018-11-11T15:11:12.940Z,4.00
2018-11-11T15:13:42.344Z,3.67
2018-11-11T15:16:11.299Z,4.53
2018-11-11T15:18:40.005Z,3.77
2018-11-11T15:21:09.526Z,3.03
2018-11-11T15:23:38.174Z,6.53
2018-11-11T15:26:08.236Z,5.40
2018-11-11T15:28:36.956Z,5.70
2018-11-11T15:31:06.706Z,3.30
2018-11-11T15:33:35.260Z,5.93
2018-11-11T15:36:04.975Z,4.70
2018-11-11T15:38:33.696Z,4.93
2018-11-11T15:41:02.431Z,5.10
2018-11-11T15:43:32.540Z,4.73
2018-11-11T15:46:01.224Z,4.83
2018-11-11T15:48:29.934Z,6.37
2018-11-11T15:50:58.636Z,5.07
2018-11-11T15:53:33.983Z,4.00
2018-11-11T15:56:03.592Z,4.63
2018-11-11T15:58:32.315Z,9.00
2018-11-11T16:01:01.138Z,6.37
2018-11-11T16:03:29.856Z,6.83
2018-11-11T16:05:58.552Z,5.63
2018-11-11T16:08:27.260Z,4.20
2018-11-11T16:10:55.976Z,8.20
2018-11-11T16:13:24.697Z,7.50
2018-11-11T16:15:53.423Z,8.23
2018-11-11T16:18:22.154Z,8.58
2018-11-11T16:20:50.873Z,7.90
2018-11-11T16:23:19.651Z,7.83
2018-11-11T16:25:48.333Z,5.67
2018-11-11T16:28:17.044Z,6.00
2018-11-11T16:30:46.492Z,8.60
2018-11-11T16:33:15.437Z,7.17
2018-11-11T16:35:44.099Z,6.17
2018-11-11T16:38:13.444Z,6.37
2018-11-11T16:40:42.236Z,8.00
2018-11-11T16:43:10.881Z,9.07
2018-11-11T16:45:39.608Z,7.00
2018-11-11T16:48:08.996Z,8.60
2018-11-11T16:50:38.259Z,7.90
2018-11-11T16:53:08.300Z,10.27
2018-11-11T16:55:37.531Z,7.20
2018-11-11T16:58:06.528Z,8.30
2018-11-11T17:00:48.231Z,8.27
2018-11-11T17:03:16.956Z,11.03
2018-11-11T17:05:46.417Z,6.90
2018-11-11T17:08:15.144Z,9.30
2018-11-11T17:10:43.883Z,5.37
2018-11-11T17:13:13.664Z,7.92
2018-11-11T17:15:42.421Z,5.97
2018-11-11T17:18:11.134Z,8.55
2018-11-11T17:20:39.941Z,5.00
2018-11-11T17:23:09.656Z,4.30
2018-11-11T17:25:38.407Z,5.87
2018-11-11T17:28:07.944Z,3.27
2018-11-11T17:30:36.583Z,6.60
2018-11-11T17:33:06.380Z,5.90
2018-11-11T17:35:35.052Z,4.13
2018-11-11T17:38:03.795Z,3.33
2018-11-11T17:40:32.538Z,4.37
2018-11-11T17:43:01.782Z,6.80
2018-11-11T17:45:30.512Z,7.50
2018-11-11T17:47:59.235Z,5.10
2018-11-11T17:50:29.910Z,7.47
2018-11-11T17:52:59.288Z,6.63
2018-11-11T17:55:29.462Z,4.47
2018-11-11T17:57:58.113Z,9.10
2018-11-11T18:00:27.908Z,5.93
2018-11-11T18:02:57.234Z,5.73
2018-11-11T18:05:27.979Z,5.50
2018-11-11T18:07:57.334Z,6.23
2018-11-11T18:10:26.504Z,4.93
2018-11-11T18:12:55.265Z,10.70
2018-11-11T18:15:25.349Z,9.87
2018-11-11T18:17:54.112Z,11.50
2018-11-11T18:20:24.149Z,8.73
2018-11-11T18:25:52.404Z,8.20
2018-11-11T18:28:21.214Z,5.65
2018-11-11T18:30:50.545Z,5.63
2018-11-11T18:33:19.252Z,5.53
2018-11-11T18:35:48.072Z,4.53
2018-11-11T18:38:17.036Z,5.80
2018-11-11T18:40:46.417Z,5.07
2018-11-11T18:43:15.136Z,4.10
2018-11-11T18:45:43.932Z,6.43
2018-11-11T18:48:12.599Z,5.97
2018-11-11T18:50:41.304Z,7.67
2018-11-11T18:53:10.028Z,5.87
2018-11-11T18:55:38.748Z,4.77
2018-11-11T18:58:07.444Z,3.83
2018-11-11T19:00:36.157Z,6.80
2018-11-11T19:03:05.182Z,3.80
2018-11-11T19:05:33.885Z,5.30
2018-11-11T19:08:02.716Z,3.63
2018-11-11T19:10:32.879Z,4.50
2018-11-11T19:13:02.937Z,3.40
2018-11-11T19:15:32.276Z,3.07
2018-11-11T19:18:01.552Z,3.20
2018-11-11T19:20:30.710Z,3.70
2018-11-11T19:22:59.420Z,3.20
2018-11-11T19:25:29.176Z,3.53
2018-11-11T19:27:58.757Z,4.03
2018-11-11T19:30:28.268Z,3.70
2018-11-11T19:32:56.936Z,3.17
2018-11-11T19:35:26.228Z,3.40
2018-11-11T19:37:55.784Z,4.90
2018-11-11T19:40:36.681Z,4.83
2018-11-11T19:43:05.417Z,4.77
2018-11-11T19:45:34.148Z,4.43
2018-11-11T19:48:02.943Z,35.25
2018-11-11T19:50:32.451Z,16.47
2018-11-11T19:53:01.380Z,13.30
2018-11-11T19:55:30.098Z,5.83
2018-11-11T19:57:58.828Z,2.90
2018-11-11T20:00:28.984Z,3.40
2018-11-11T20:02:59.197Z,3.30
2018-11-11T20:05:27.921Z,4.13
2018-11-11T20:07:57.617Z,8.43
2018-11-11T20:10:27.424Z,4.80
2018-11-11T20:12:56.284Z,19.87
2018-11-11T20:15:27.132Z,13.20
2018-11-11T20:17:55.888Z,9.80
2018-11-11T20:20:27.204Z,5.27
2018-11-11T20:22:56.629Z,6.03
2018-11-11T20:25:25.344Z,4.33
2018-11-11T20:27:54.595Z,5.93
2018-11-11T20:30:24.565Z,3.30
2018-11-11T20:32:53.366Z,3.30
2018-11-11T20:35:23.487Z,3.30
2018-11-11T20:38:06.545Z,3.43
2018-11-11T20:40:35.734Z,4.30
2018-11-11T20:43:05.292Z,3.50
2018-11-11T20:45:34.598Z,4.33
2018-11-11T20:48:03.868Z,3.57
2018-11-11T20:50:33.534Z,3.97
2018-11-11T20:53:03.385Z,4.27
2018-11-11T20:55:32.141Z,7.30
2018-11-11T20:58:01.035Z,3.93
2018-11-11T21:00:34.986Z,3.73
2018-11-11T21:03:11.922Z,2.85
2018-11-11T21:05:41.767Z,3.40
2018-11-11T21:08:10.529Z,4.62
2018-11-11T21:10:41.155Z,3.83
2018-11-11T21:13:10.231Z,4.57
2018-11-11T21:15:38.936Z,6.27
2018-11-11T21:18:08.220Z,5.63
2018-11-11T21:20:36.962Z,5.17
2018-11-11T21:23:07.068Z,5.33
2018-11-11T21:25:35.892Z,4.33
2018-11-11T21:28:04.780Z,4.53
2018-11-11T21:30:33.780Z,5.80
2018-11-11T21:33:02.504Z,5.87
2018-11-11T21:35:31.288Z,8.20
2018-11-11T21:38:00.187Z,6.47
2018-11-11T21:40:28.870Z,4.80
2018-11-11T21:42:58.066Z,6.40
2018-11-11T21:45:28.018Z,6.80
2018-11-11T21:47:56.787Z,5.10
2018-11-11T21:50:26.349Z,7.93
2018-11-11T21:53:02.211Z,8.53
2018-11-11T21:55:30.879Z,5.70
2018-11-11T21:57:59.600Z,6.97
2018-11-11T22:00:28.327Z,8.30
2018-11-11T22:02:57.103Z,8.17
2018-11-11T22:05:25.802Z,7.57
2018-11-11T22:07:54.936Z,8.07
2018-11-11T22:10:23.665Z,8.97
2018-11-11T22:12:53.255Z,8.87
2018-11-11T22:15:22.247Z,10.50
2018-11-11T22:17:50.981Z,8.93
2018-11-11T22:20:20.309Z,9.60
2018-11-11T22:22:55.267Z,11.33
2018-11-11T22:25:24.013Z,9.70
2018-11-11T22:27:52.761Z,10.30
2018-11-11T22:30:21.464Z,9.93
2018-11-11T22:32:50.220Z,8.83
2018-11-11T22:35:18.951Z,12.23
2018-11-11T22:37:47.665Z,9.83
2018-11-11T22:40:16.428Z,11.28
2018-11-11T22:42:45.145Z,9.37
2018-11-11T22:45:14.804Z,10.60
2018-11-11T22:47:43.532Z,11.53
2018-11-11T22:50:14.399Z,11.00
2018-11-11T22:52:43.206Z,12.50
2018-11-11T22:55:12.849Z,9.53
2018-11-11T22:57:42.456Z,9.97
2018-11-11T23:00:18.221Z,12.93
2018-11-11T23:02:46.975Z,13.23
2018-11-11T23:05:16.684Z,16.80
2018-11-11T23:07:45.556Z,14.57
2018-11-11T23:10:14.858Z,14.70
2018-11-11T23:12:43.604Z,16.83
2018-11-11T23:15:13.544Z,13.22
2018-11-11T23:17:42.318Z,14.33
2018-11-11T23:20:12.704Z,16.07
2018-11-11T23:22:41.996Z,14.07
2018-11-11T23:25:12.220Z,14.07
2018-11-11T23:27:41.140Z,12.80
2018-11-11T23:30:12.177Z,14.53
2018-11-11T23:32:40.937Z,14.60
2018-11-11T23:35:10.171Z,16.40
2018-11-11T23:37:39.128Z,13.30
2018-11-11T23:40:09.912Z,12.23
2018-11-11T23:42:38.852Z,14.37
2018-11-11T23:45:08.071Z,13.40
2018-11-11T23:47:37.063Z,11.73
2018-11-11T23:50:09.912Z,14.77
2018-11-11T23:52:38.907Z,11.65
2018-11-11T23:55:08.940Z,13.17
2018-11-11T23:57:37.687Z,11.17
